Time;durP1;ratioP1;P1;durP2;ratioP2;P2;SDS_P1;SDS_P2;PMS_P1;PMS_P2;Temp;Humidity;BMP_temperature;BMP_pressure;BME280_temperature;BME280_humidity;BME280_pressure;Samples;Min_cycle;Max_cycle;Signal;HPM_P1;HPM_P2
2023/05/26 00:01:34;;;;;;;;;;;7.40;99.90;;;5.98;92.39;102120.03;5051019;28;19970;-71
2023/05/26 00:04:00;;;;;;;;;;;7.30;99.90;;;5.88;91.47;102124.41;5055532;28;19948;-71
2023/05/26 00:06:26;;;;;;;;;;;7.30;99.90;;;5.73;91.00;102120.13;5036482;28;19938;-71
2023/05/26 00:08:51;;;;;;;;;;;7.20;99.90;;;5.62;89.83;102114.06;5056424;28;19924;-70
2023/05/26 00:11:17;;;;;;;;;;;7.10;99.90;;;5.53;89.36;102113.22;5035899;28;19986;-70
2023/05/26 00:13:43;;;;;;;;;;;7.00;99.90;;;5.49;88.97;102113.25;5051954;28;20312;-72
2023/05/26 00:16:09;;;;;;;;;;;6.90;99.90;;;5.45;89.05;102117.59;5055862;28;20339;-72
2023/05/26 00:18:35;;;;;;;;;;;6.90;99.90;;;5.41;88.62;102112.38;5055971;28;20339;-71
2023/05/26 00:21:03;;;;;;;;;;;6.90;99.90;;;5.33;88.78;102110.69;5054883;28;19913;-71
2023/05/26 00:23:29;;;;;;;;;;;6.80;99.90;;;5.27;88.93;102104.56;5042747;28;19989;-72
2023/05/26 00:25:55;;;;;;;;;;;6.70;99.90;;;5.20;88.61;102108.09;5034218;28;19913;-71
2023/05/26 00:28:20;;;;;;;;;;;6.60;99.90;;;5.11;88.57;102101.13;5055964;28;19912;-72
2023/05/26 00:30:46;;;;;;;;;;;6.60;99.90;;;5.02;88.48;102102.03;5054561;28;19920;-71
2023/05/26 00:33:12;;;;;;;;;;;6.50;99.90;;;4.95;88.62;102102.91;5055429;28;19916;-70
2023/05/26 00:35:38;;;;;;;;;;;6.50;99.90;;;4.87;88.87;102094.22;5026194;28;19920;-72
2023/05/26 00:38:04;;;;;;;;;;;6.40;99.90;;;4.77;88.78;102103.78;5018594;28;19916;-72
2023/05/26 00:40:32;;;;;;;;;;;6.30;99.90;;;4.64;88.96;102099.44;5054103;28;20392;-72
2023/05/26 00:42:58;;;;;;;;;;;6.20;99.90;;;4.54;88.43;102095.97;5044575;28;20003;-72
2023/05/26 00:45:24;;;;;;;;;;;6.10;99.90;;;4.48;88.36;102095.97;5053984;28;19924;-71
2023/05/26 00:47:51;;;;;;;;;;;6.60;99.90;;;4.41;88.29;102102.06;5042393;28;19927;-70
2023/05/26 00:50:17;;;;;;;;;;;6.00;99.90;;;4.36;87.41;102096.81;5049524;28;20001;-72
2023/05/26 00:52:43;;;;;;;;;;;5.90;99.90;;;4.34;87.98;102102.91;5055776;28;20007;-71
2023/05/26 00:55:09;;;;;;;;;;;5.80;99.90;;;4.31;88.28;102104.63;5017646;28;19932;-71
2023/05/26 00:57:36;;;;;;;;;;;5.80;99.90;;;4.33;89.90;102107.25;5036763;28;19916;-71
2023/05/26 01:00:03;;;;;;;;;;;5.80;99.90;;;4.32;90.49;102111.59;5050517;28;20007;-72
2023/05/26 01:02:29;;;;;;;;;;;5.80;99.90;;;4.34;90.65;102102.91;5042821;28;19999;-72
2023/05/26 01:04:55;;;;;;;;;;;5.80;99.90;;;4.31;91.21;102099.41;5054981;28;19924;-72
2023/05/26 01:07:22;;;;;;;;;;;5.80;99.90;;;4.27;92.29;102107.25;5053947;28;19924;-71
2023/05/26 01:09:49;;;;;;;;;;;5.70;99.90;;;4.25;92.42;102104.63;5052129;28;20326;-71
2023/05/26 01:12:54;;;;;;;;;;;5.70;99.90;;;4.20;92.49;102106.34;5046568;28;19958;-70
2023/05/26 01:15:48;;;;;;;;;;;5.70;99.90;;;4.15;92.68;102107.22;4990849;28;19925;-73
2023/05/26 01:18:42;;;;;;;;;;;5.70;99.90;;;4.11;92.81;102107.22;5052619;28;19974;-71
2023/05/26 01:21:12;;;;;;;;;;;5.60;99.90;;;4.08;92.69;102108.94;5044549;28;19921;-71
2023/05/26 01:24:07;;;;;;;;;;;5.60;99.90;;;4.05;92.18;102112.41;5064767;28;19920;-72
2023/05/26 01:27:00;;;;;;;;;;;5.50;99.90;;;4.02;92.78;102104.59;5042453;28;19912;-71
2023/05/26 01:29:27;;;;;;;;;;;5.50;99.90;;;4.01;92.77;102107.19;5038676;28;20003;-71
2023/05/26 01:31:53;;;;;;;;;;;5.50;99.90;;;4.00;92.90;102113.28;5052769;28;20507;-71
2023/05/26 01:34:19;;;;;;;;;;;5.50;99.90;;;3.98;92.91;102115.00;5050995;28;19974;-72
2023/05/26 01:36:45;;;;;;;;;;;5.40;99.90;;;3.96;93.14;102114.13;5049443;28;19916;-72
2023/05/26 01:39:10;;;;;;;;;;;5.40;99.90;;;3.92;93.83;102121.06;5037713;28;19912;-71
2023/05/26 01:42:08;;;;;;;;;;;5.40;99.90;;;3.88;94.30;102117.56;5052480;28;19981;-71
2023/05/26 01:44:58;;;;;;;;;;;5.40;99.90;;;3.86;94.26;102119.28;4994767;28;19992;-71
2023/05/26 01:47:27;;;;;;;;;;;5.40;99.90;;;3.85;94.69;102119.31;5040370;28;19928;-71
2023/05/26 01:49:54;;;;;;;;;;;5.30;99.90;;;3.84;93.93;102128.84;5052599;28;19912;-71
2023/05/26 01:52:20;;;;;;;;;;;5.30;99.90;;;3.83;94.58;102118.44;5018169;28;20002;-71
2023/05/26 01:54:55;;;;;;;;;;;5.30;99.90;;;3.82;94.05;102130.59;5040131;28;19917;-72
2023/05/26 01:57:21;;;;;;;;;;;5.30;99.90;;;3.83;94.41;102124.50;5050801;28;19966;-72
2023/05/26 01:59:47;;;;;;;;;;;5.30;99.90;;;3.82;94.41;102119.28;5048982;28;19952;-71
2023/05/26 02:02:12;;;;;;;;;;;5.30;99.90;;;3.80;94.33;102118.41;5040589;28;19927;-71
2023/05/26 02:04:38;;;;;;;;;;;5.30;99.90;;;3.80;94.81;102116.69;5038479;28;19920;-72
2023/05/26 02:07:05;;;;;;;;;;;5.30;99.90;;;3.79;94.75;102127.09;5053024;28;19917;-71
2023/05/26 02:09:31;;;;;;;;;;;5.20;99.90;;;3.78;94.52;102123.63;5050950;28;20554;-72
2023/05/26 02:11:57;;;;;;;;;;;5.20;99.90;;;3.78;94.54;102123.63;5047606;28;19925;-72
2023/05/26 02:14:23;;;;;;;;;;;5.20;99.90;;;3.81;95.40;102128.84;5044565;28;19939;-71
2023/05/26 02:16:49;;;;;;;;;;;5.20;99.90;;;3.83;96.02;102132.31;5054830;28;19979;-72
2023/05/26 02:19:15;;;;;;;;;;;5.20;99.90;;;3.83;96.32;102126.25;5050970;28;19924;-71
2023/05/26 02:21:41;;;;;;;;;;;5.20;99.90;;;3.82;96.30;102127.09;5023053;28;20438;-71
2023/05/26 02:24:07;;;;;;;;;;;5.20;99.90;;;3.79;96.62;102141.00;5052860;28;19932;-71
2023/05/26 02:26:32;;;;;;;;;;;5.20;99.90;;;3.74;96.25;102137.50;5053351;28;20304;-71
2023/05/26 02:28:58;;;;;;;;;;;5.20;99.90;;;3.73;96.21;102140.09;5045976;28;19931;-72
2023/05/26 02:31:24;;;;;;;;;;;5.20;99.90;;;3.70;96.12;102140.97;5032463;28;19920;-71
2023/05/26 02:33:50;;;;;;;;;;;5.20;99.90;;;3.68;96.14;102140.94;5048054;28;19921;-71
2023/05/26 02:36:16;;;;;;;;;;;5.10;99.90;;;3.68;96.30;102140.06;5053147;28;19924;-71
2023/05/26 02:38:42;;;;;;;;;;;5.10;99.90;;;3.68;96.38;102143.53;5050889;28;19916;-71
2023/05/26 02:41:08;;;;;;;;;;;5.10;99.90;;;3.68;96.82;102148.75;5052129;28;19912;-73
2023/05/26 02:43:34;;;;;;;;;;;5.20;99.90;;;3.71;97.22;102150.50;5050784;28;19917;-71
2023/05/26 02:46:00;;;;;;;;;;;5.20;99.90;;;3.75;97.55;102147.03;5047757;28;19962;-72
2023/05/26 02:48:26;;;;;;;;;;;5.20;99.90;;;3.82;98.62;102150.53;5054014;28;20312;-71
2023/05/26 02:50:54;;;;;;;;;;;5.20;99.90;;;3.90;99.84;102156.66;5051587;28;19920;-71
2023/05/26 02:53:21;;;;;;;;;;;5.30;99.90;;;3.96;100.00;102158.44;5048573;28;20412;-72
2023/05/26 02:55:47;;;;;;;;;;;5.40;99.90;;;4.02;100.00;102155.84;5032361;28;19951;-71
2023/05/26 02:58:13;;;;;;;;;;;5.40;99.90;;;4.07;100.00;102156.72;5038844;28;20034;-71
2023/05/26 03:00:39;;;;;;;;;;;5.50;99.90;;;4.13;100.00;102155.91;5056341;28;19916;-72
2023/05/26 03:03:05;;;;;;;;;;;5.50;99.90;;;4.15;100.00;102161.94;5043083;28;19923;-70
2023/05/26 03:05:31;;;;;;;;;;;5.50;99.90;;;4.11;100.00;102161.09;5034789;28;19921;-71
2023/05/26 03:07:57;;;;;;;;;;;5.50;99.90;;;4.11;100.00;102161.09;5049676;28;20003;-71
2023/05/26 03:10:23;;;;;;;;;;;5.50;99.90;;;4.11;100.00;102164.56;5047745;28;19916;-71
2023/05/26 03:12:48;;;;;;;;;;;5.50;99.90;;;4.12;100.00;102165.44;5052812;28;19931;-71
2023/05/26 03:15:14;;;;;;;;;;;5.50;99.90;;;4.17;100.00;102162.81;5053704;28;19912;-71
2023/05/26 03:17:39;;;;;;;;;;;5.50;99.90;;;4.21;100.00;102168.09;5048115;28;19973;-72
2023/05/26 03:20:06;;;;;;;;;;;5.60;99.90;;;4.26;100.00;102168.97;5038199;28;19927;-71
2023/05/26 03:22:31;;;;;;;;;;;5.60;99.90;;;4.35;100.00;102165.50;5049189;28;19920;-72
2023/05/26 03:24:57;;;;;;;;;;;5.70;99.90;;;4.46;100.00;102169.00;5043724;28;19919;-71
2023/05/26 03:27:23;;;;;;;;;;;5.70;99.90;;;4.56;100.00;102169.00;5045754;28;20284;-71
2023/05/26 03:29:50;;;;;;;;;;;5.80;99.90;;;4.64;100.00;102165.53;5050163;28;19920;-70
2023/05/26 03:32:16;;;;;;;;;;;5.90;99.90;;;4.78;100.00;102177.75;5033947;28;20404;-71
2023/05/26 03:34:41;;;;;;;;;;;6.00;99.90;;;4.90;100.00;102180.34;5055803;28;19918;-71
2023/05/26 03:37:07;;;;;;;;;;;6.10;99.90;;;5.05;100.00;102177.72;5050161;28;19955;-72
2023/05/26 03:39:34;;;;;;;;;;;6.30;99.90;;;5.16;100.00;102182.94;5056232;28;19927;-71
2023/05/26 03:42:00;;;;;;;;;;;6.40;99.90;;;5.31;100.00;102189.88;5052851;28;19920;-71
2023/05/26 03:44:26;;;;;;;;;;;6.50;99.90;;;5.39;100.00;102192.50;5051764;28;20007;-71
2023/05/26 03:46:51;;;;;;;;;;;6.60;99.90;;;5.44;100.00;102185.50;5055093;28;19920;-71
2023/05/26 03:49:17;;;;;;;;;;;6.70;99.90;;;5.57;100.00;102196.81;5047839;28;20776;-70
2023/05/26 03:51:43;;;;;;;;;;;6.80;99.90;;;5.67;100.00;102193.31;5038848;28;19923;-71
2023/05/26 03:54:08;;;;;;;;;;;6.90;99.90;;;5.80;100.00;102197.63;5043196;28;20500;-72
2023/05/26 03:56:34;;;;;;;;;;;6.90;99.90;;;5.93;100.00;102198.44;5052684;28;19924;-71
2023/05/26 03:59:01;;;;;;;;;;;7.10;99.90;;;6.12;100.00;102207.13;5055836;28;19919;-72
2023/05/26 04:01:27;;;;;;;;;;;7.20;99.90;;;6.39;100.00;102210.47;5037080;28;20372;-72
2023/05/26 04:03:52;;;;;;;;;;;7.40;99.90;;;6.67;100.00;102205.94;5035660;28;20012;-71
2023/05/26 04:06:18;;;;;;;;;;;7.60;99.90;;;7.07;99.81;102222.22;5054166;28;19916;-70
2023/05/26 04:08:47;;;;;;;;;;;8.00;99.90;;;7.47;97.62;102221.84;5030380;28;19942;-71
2023/05/26 04:11:12;;;;;;;;;;;8.30;99.90;;;8.31;94.36;102227.03;5043194;28;20339;-71
2023/05/26 04:13:40;;;;;;;;;;;9.00;99.90;;;8.70;90.86;102224.78;5054439;28;19969;-71
2023/05/26 04:16:06;;;;;;;;;;;9.30;99.90;;;9.59;87.55;102234.69;5035828;28;20323;-71
2023/05/26 04:18:32;;;;;;;;;;;10.10;99.90;;;10.51;83.40;102244.28;5025762;28;19963;-71
2023/05/26 04:20:57;;;;;;;;;;;10.80;99.90;;;11.41;79.43;102247.38;5016689;28;19916;-71
2023/05/26 04:23:23;;;;;;;;;;;11.60;99.90;;;12.26;75.73;102247.72;5048074;28;19921;-71
2023/05/26 04:25:50;;;;;;;;;;;12.80;99.90;;;12.97;72.33;102245.56;5056155;28;19922;-70
2023/05/26 04:28:16;;;;;;;;;;;12.90;99.90;;;13.72;69.62;102265.06;5052391;28;19913;-71
2023/05/26 04:30:42;;;;;;;;;;;13.60;99.90;;;14.38;67.19;102261.78;5051246;28;19941;-71
2023/05/26 04:33:09;;;;;;;;;;;14.20;99.90;;;14.98;65.11;102270.91;5037174;28;19927;-71
2023/05/26 04:35:35;;;;;;;;;;;14.70;99.90;;;15.50;63.17;102281.16;5038571;28;19920;-70
2023/05/26 04:38:04;;;;;;;;;;;15.20;99.90;;;16.15;61.60;102281.88;5057007;28;20292;-71
2023/05/26 04:40:34;;;;;;;;;;;15.70;99.90;;;16.64;60.38;102292.03;5044272;28;20065;-70
2023/05/26 04:43:00;;;;;;;;;;;16.20;99.90;;;17.24;58.71;102296.31;5050367;28;19912;-71
2023/05/26 04:45:27;;;;;;;;;;;16.60;99.90;;;17.69;57.58;102311.75;5036138;28;19918;-71
2023/05/26 04:47:54;;;;;;;;;;;16.60;99.90;;;18.12;56.38;102312.19;5056790;28;19924;-71
2023/05/26 04:50:23;;;;;;;;;;;17.40;99.90;;;18.63;55.45;102322.78;5054603;28;20011;-71
2023/05/26 04:52:52;;;;;;;;;;;17.80;99.90;;;18.92;54.34;102329.19;5051090;28;19920;-71
2023/05/26 04:55:18;;;;;;;;;;;18.10;99.90;;;19.18;53.75;102334.84;5030717;28;19920;-71
2023/05/26 04:57:44;;;;;;;;;;;18.40;99.90;;;19.70;52.86;102331.84;5050015;28;19931;-71
2023/05/26 05:00:12;;;;;;;;;;;18.70;99.90;;;20.03;51.84;102341.44;5040111;28;19927;-72
2023/05/26 05:02:37;;;;;;;;;;;19.00;99.90;;;20.51;50.96;102357.22;5036857;28;20714;-71
2023/05/26 05:05:03;;;;;;;;;;;19.30;99.90;;;20.84;50.56;102352.44;5066683;28;19962;-71
2023/05/26 05:07:29;;;;;;;;;;;19.60;99.90;;;21.00;49.55;102356.78;5052636;28;19912;-71
2023/05/26 05:09:55;;;;;;;;;;;19.80;99.90;;;21.15;49.03;102354.94;5037358;28;19917;-71
2023/05/26 05:12:20;;;;;;;;;;;20.00;99.90;;;21.07;48.83;102366.13;5054274;28;20442;-72
2023/05/26 05:14:46;;;;;;;;;;;20.10;99.90;;;21.61;48.82;102365.28;5052362;28;19913;-72
2023/05/26 05:17:12;;;;;;;;;;;20.30;99.90;;;21.78;48.03;102378.41;5051482;28;19977;-71
2023/05/26 05:19:38;;;;;;;;;;;20.40;99.90;;;21.15;47.44;102360.28;5050987;28;19920;-72
2023/05/26 05:22:03;;;;;;;;;;;20.30;99.00;;;21.35;47.96;102369.69;5037031;28;19920;-70
2023/05/26 05:24:29;;;;;;;;;;;20.40;99.40;;;21.30;47.89;102367.31;5034705;28;19916;-71
2023/05/26 05:26:55;;;;;;;;;;;20.30;99.20;;;21.47;48.14;102372.44;5054083;28;19921;-71
2023/05/26 05:29:20;;;;;;;;;;;20.30;99.90;;;21.83;47.72;102378.94;5051314;28;20331;-72
2023/05/26 05:31:46;;;;;;;;;;;20.50;99.70;;;22.23;46.72;102389.63;5049877;28;19916;-71
2023/05/26 05:34:12;;;;;;;;;;;20.80;99.10;;;22.55;46.29;102394.56;5030889;28;19954;-71
2023/05/26 05:36:37;;;;;;;;;;;21.00;99.00;;;23.23;46.03;102405.81;5053634;28;20297;-72
2023/05/26 05:39:03;;;;;;;;;;;21.40;99.40;;;23.90;44.33;102407.97;5043134;28;20411;-71
2023/05/26 05:41:29;;;;;;;;;;;21.80;98.60;;;24.23;43.61;102420.63;5006752;28;20388;-71
2023/05/26 05:43:56;;;;;;;;;;;22.30;97.80;;;24.32;43.67;102424.47;5023113;28;20641;-72
2023/05/26 05:46:26;;;;;;;;;;;22.40;97.60;;;24.53;43.22;102430.84;5055864;28;19937;-71
2023/05/26 05:48:51;;;;;;;;;;;22.70;97.30;;;24.34;42.69;102427.88;5051704;28;20405;-72
2023/05/26 05:51:17;;;;;;;;;;;22.90;96.10;;;24.36;42.88;102431.28;5041091;28;19916;-72
2023/05/26 05:53:44;;;;;;;;;;;23.00;96.20;;;24.55;42.53;102441.50;5030846;28;20445;-72
2023/05/26 05:56:09;;;;;;;;;;;23.10;96.30;;;23.59;42.56;102436.31;5052187;28;19916;-72
2023/05/26 05:58:35;;;;;;;;;;;22.90;95.00;;;22.70;44.19;102427.53;5054428;28;19943;-73
2023/05/26 06:01:01;;;;;;;;;;;22.60;95.10;;;22.42;45.32;102426.78;5014562;28;19916;-71
2023/05/26 06:03:26;;;;;;;;;;;22.20;96.00;;;21.56;46.42;102410.31;5051812;28;19932;-71
2023/05/26 06:05:52;;;;;;;;;;;21.60;96.30;;;20.64;47.70;102388.47;5032110;28;20739;-70
2023/05/26 06:08:18;;;;;;;;;;;21.30;96.80;;;20.84;48.09;102395.25;5035134;28;19912;-72
2023/05/26 06:10:44;;;;;;;;;;;20.90;97.40;;;21.58;47.76;102408.38;5034236;28;19925;-72
2023/05/26 06:13:09;;;;;;;;;;;20.90;98.10;;;20.40;48.36;102388.16;5029042;28;19923;-72
2023/05/26 06:15:35;;;;;;;;;;;20.80;97.30;;;19.33;50.30;102376.72;5039175;28;19932;-71
2023/05/26 06:18:01;;;;;;;;;;;20.30;97.80;;;19.30;51.17;102382.22;5047859;28;20380;-72
2023/05/26 06:20:27;;;;;;;;;;;19.80;98.30;;;18.20;52.82;102357.09;5053993;28;19912;-70
2023/05/26 06:22:55;;;;;;;;;;;19.20;98.80;;;19.07;52.02;102383.53;5057005;28;19959;-71
2023/05/26 06:25:20;;;;;;;;;;;19.20;99.40;;;18.20;52.62;102368.63;5045226;28;19920;-72
2023/05/26 06:27:46;;;;;;;;;;;19.10;99.50;;;17.46;53.39;102350.19;5049254;28;19986;-71
2023/05/26 06:30:12;;;;;;;;;;;18.70;99.20;;;16.84;54.38;102336.34;5050053;28;20340;-72
2023/05/26 06:32:38;;;;;;;;;;;18.30;99.40;;;15.93;56.11;102320.97;5048580;28;19920;-72
2023/05/26 06:35:05;;;;;;;;;;;17.60;99.70;;;15.38;58.74;102325.03;5063667;28;19936;-71
2023/05/26 06:37:31;;;;;;;;;;;17.10;99.90;;;15.10;60.05;102338.53;5055214;28;19912;-71
2023/05/26 06:39:57;;;;;;;;;;;16.60;99.90;;;15.22;59.60;102344.28;5050436;28;20373;-72
2023/05/26 06:42:23;;;;;;;;;;;16.40;99.90;;;15.08;59.01;102342.19;5061383;28;19924;-72
2023/05/26 06:44:49;;;;;;;;;;;16.30;99.90;;;14.57;59.80;102331.75;5051790;28;19917;-71
2023/05/26 06:47:15;;;;;;;;;;;16.00;99.90;;;14.67;61.04;102345.53;5036503;28;19920;-70
2023/05/26 06:49:41;;;;;;;;;;;15.80;99.90;;;14.56;60.59;102345.94;5033974;28;20578;-71
2023/05/26 06:52:07;;;;;;;;;;;15.60;99.90;;;14.86;61.15;102358.06;5030318;28;19925;-71
2023/05/26 06:54:32;;;;;;;;;;;15.70;99.90;;;15.10;60.58;102361.56;5049495;28;19920;-72
2023/05/26 06:56:59;;;;;;;;;;;15.80;99.90;;;14.97;60.64;102361.19;5052122;28;19912;-71
2023/05/26 06:59:24;;;;;;;;;;;15.80;99.90;;;14.99;60.51;102369.94;5041440;28;20081;-70
2023/05/26 07:01:50;;;;;;;;;;;15.80;99.90;;;14.70;61.77;102358.66;5057176;28;19917;-71
2023/05/26 07:04:18;;;;;;;;;;;15.70;99.90;;;14.86;62.14;102368.66;5051892;28;20054;-70
2023/05/26 07:06:44;;;;;;;;;;;15.70;99.90;;;15.09;62.33;102375.75;5048763;28;19920;-70
2023/05/26 07:09:10;;;;;;;;;;;17.10;99.90;;;14.81;61.24;102370.66;5030689;28;19994;-71
2023/05/26 07:11:36;;;;;;;;;;;15.80;99.90;;;14.53;61.46;102361.91;5052525;28;19912;-70
2023/05/26 07:14:01;;;;;;;;;;;15.70;99.90;;;15.20;60.17;102373.53;5020527;28;20388;-71
2023/05/26 07:16:27;;;;;;;;;;;15.80;99.90;;;15.31;59.04;102375.75;5029878;28;20396;-70
2023/05/26 07:18:53;;;;;;;;;;;16.00;99.90;;;15.13;60.05;102377.34;5033698;28;19916;-70
2023/05/26 07:21:21;;;;;;;;;;;16.00;99.90;;;14.96;59.89;102378.84;5048450;28;20467;-70
2023/05/26 07:23:47;;;;;;;;;;;15.90;99.90;;;15.02;60.46;102369.81;5029502;28;19916;-70
2023/05/26 07:26:13;;;;;;;;;;;15.90;99.90;;;14.85;60.44;102365.16;5047868;28;20376;-70
2023/05/26 07:28:41;;;;;;;;;;;15.80;99.90;;;14.63;59.83;102366.91;5047565;28;20051;-70
2023/05/26 07:31:06;;;;;;;;;;;15.70;99.90;;;14.45;59.91;102365.75;5029501;28;19999;-70
2023/05/26 07:33:32;;;;;;;;;;;15.60;99.90;;;16.58;58.05;102404.00;5038302;28;19916;-71
2023/05/26 07:35:58;;;;;;;;;;;16.20;99.90;;;18.65;53.53;102423.13;5052237;28;19920;-72
2023/05/26 07:38:24;;;;;;;;;;;17.50;99.90;;;19.94;49.91;102430.22;5049253;28;20558;-71
2023/05/26 07:40:51;;;;;;;;;;;19.00;99.90;;;19.54;48.33;102427.16;5056244;28;20003;-72
2023/05/26 07:43:17;;;;;;;;;;;19.70;97.60;;;18.98;50.62;102416.91;5052905;28;19920;-72
2023/05/26 07:45:43;;;;;;;;;;;19.70;98.50;;;18.31;51.85;102408.03;5044914;28;19920;-70
2023/05/26 07:48:08;;;;;;;;;;;19.30;98.60;;;17.73;52.92;102400.34;5040989;28;19919;-72
2023/05/26 07:50:34;;;;;;;;;;;18.10;98.80;;;17.16;53.38;102392.50;5050387;28;19924;-70
2023/05/26 07:53:00;;;;;;;;;;;18.30;98.80;;;17.03;54.52;102397.53;5044233;28;20287;-71
2023/05/26 07:55:26;;;;;;;;;;;18.10;99.80;;;17.40;54.29;102393.09;5054587;28;20006;-71
2023/05/26 07:57:51;;;;;;;;;;;18.00;99.90;;;18.48;52.21;102411.63;5039605;28;19929;-71
2023/05/26 08:00:17;;;;;;;;;;;18.40;99.90;;;18.68;49.41;102421.22;5047504;28;19919;-70
2023/05/26 08:02:43;;;;;;;;;;;18.90;97.80;;;18.44;48.90;102408.25;5046552;28;19931;-70
2023/05/26 08:05:09;;;;;;;;;;;19.00;96.70;;;19.64;48.65;102439.03;5049093;28;20279;-71
2023/05/26 08:07:35;;;;;;;;;;;19.40;97.80;;;20.74;46.76;102452.16;5041619;28;19917;-71
2023/05/26 08:10:00;;;;;;;;;;;20.10;97.10;;;21.71;44.33;102468.25;5040787;28;19920;-71
2023/05/26 08:12:26;;;;;;;;;;;21.00;95.50;;;21.42;44.17;102460.28;5044140;28;19924;-72
2023/05/26 08:14:52;;;;;;;;;;;21.40;94.30;;;20.63;44.33;102450.16;5031445;28;19991;-71
2023/05/26 08:17:18;;;;;;;;;;;21.20;93.10;;;20.99;44.48;102454.13;5047618;28;20377;-71
2023/05/26 08:19:46;;;;;;;;;;;21.20;93.90;;;21.39;43.84;102452.44;5057284;28;20872;-71
2023/05/26 08:22:12;;;;;;;;;;;21.40;93.70;;;20.17;43.29;102435.06;5059177;28;19925;-70
2023/05/26 08:24:37;;;;;;;;;;;21.10;91.90;;;19.67;45.06;102445.09;5050575;28;19931;-71
2023/05/26 08:27:03;;;;;;;;;;;20.40;93.00;;;19.67;46.18;102444.19;5051854;28;19921;-70
2023/05/26 08:29:29;;;;;;;;;;;20.30;94.40;;;20.07;45.36;102433.88;5056177;28;20011;-70
2023/05/26 08:31:55;;;;;;;;;;;20.30;94.20;;;19.86;45.14;102428.00;5059091;28;19927;-71
2023/05/26 08:34:20;;;;;;;;;;;20.30;93.50;;;19.58;46.26;102439.38;5043664;28;20281;-70
2023/05/26 08:36:46;;;;;;;;;;;20.30;94.00;;;19.50;47.08;102441.63;5054189;28;19908;-71
2023/05/26 08:39:12;;;;;;;;;;;20.20;94.70;;;19.55;47.20;102434.25;5050830;28;20292;-70
2023/05/26 08:42:00;;;;;;;;;;;20.20;94.90;;;18.82;47.68;102413.38;5047396;28;19928;-70
2023/05/26 08:44:26;;;;;;;;;;;20.00;94.70;;;18.67;48.22;102419.53;5048764;28;20317;-71
2023/05/26 08:46:55;;;;;;;;;;;19.70;95.00;;;18.43;48.67;102423.41;5049788;28;20000;-71
2023/05/26 08:49:22;;;;;;;;;;;19.40;95.10;;;18.53;48.62;102423.78;5037721;28;19932;-70
2023/05/26 08:51:58;;;;;;;;;;;19.40;95.50;;;18.43;49.25;102417.22;5048601;28;19916;-71
2023/05/26 08:54:24;;;;;;;;;;;19.30;95.60;;;18.53;49.11;102417.56;5022490;28;19916;-70
2023/05/26 08:56:50;;;;;;;;;;;19.30;95.70;;;18.09;47.68;102423.44;5039044;28;20952;-70
2023/05/26 08:59:16;;;;;;;;;;;19.10;94.30;;;18.02;48.17;102412.25;5054955;28;19919;-70
2023/05/26 09:01:42;;;;;;;;;;;19.10;94.60;;;17.95;48.32;102413.50;5057186;28;19921;-71
2023/05/26 09:04:11;;;;;;;;;;;19.00;95.00;;;18.03;49.05;102408.63;5048718;28;19921;-71
2023/05/26 09:06:44;;;;;;;;;;;18.90;95.80;;;18.11;49.32;102406.44;5056561;28;19913;-70
2023/05/26 09:09:13;;;;;;;;;;;18.90;95.80;;;17.86;49.09;102411.28;5037530;28;19921;-70
2023/05/26 09:11:43;;;;;;;;;;;18.90;95.30;;;18.16;49.43;102416.84;5040073;28;20004;-70
2023/05/26 09:14:17;;;;;;;;;;;19.00;96.00;;;18.17;49.15;102405.25;5054744;28;20355;-70
2023/05/26 09:16:46;;;;;;;;;;;19.00;95.60;;;17.98;48.50;102424.00;5052280;28;19964;-71
2023/05/26 09:19:17;;;;;;;;;;;18.90;95.20;;;18.12;47.93;102424.16;5057408;28;19919;-71
2023/05/26 09:21:53;;;;;;;;;;;18.90;94.50;;;18.11;47.92;102424.22;5054882;28;19917;-71
2023/05/26 09:24:23;;;;;;;;;;;19.50;95.00;;;17.84;47.53;102416.72;5040273;28;19943;-71
2023/05/26 09:26:50;;;;;;;;;;;18.90;95.00;;;17.97;48.17;102417.81;5055090;28;20469;-72
2023/05/26 09:29:18;;;;;;;;;;;18.90;94.50;;;17.78;48.03;102412.50;5031832;28;19912;-71
2023/05/26 09:31:49;;;;;;;;;;;18.80;94.40;;;17.76;48.61;102413.53;5056789;28;20313;-71
2023/05/26 09:34:22;;;;;;;;;;;18.70;94.80;;;17.75;48.64;102414.44;5046519;28;20638;-72
2023/05/26 09:36:52;;;;;;;;;;;18.70;94.70;;;17.75;48.95;102426.00;5059389;28;20015;-72
2023/05/26 09:39:30;;;;;;;;;;;18.70;95.10;;;17.63;48.58;102427.44;5054240;28;20011;-71
2023/05/26 09:41:56;;;;;;;;;;;18.60;94.70;;;17.56;48.50;102417.19;5038086;28;19924;-70
2023/05/26 09:44:22;;;;;;;;;;;18.60;94.30;;;17.92;49.32;102418.97;5055015;28;19917;-71
2023/05/26 09:46:55;;;;;;;;;;;18.70;94.20;;;18.22;48.91;102416.53;5051046;28;20377;-71
2023/05/26 09:49:21;;;;;;;;;;;18.80;95.90;;;18.40;49.86;102425.38;5060084;28;19949;-71
2023/05/26 09:51:49;;;;;;;;;;;19.00;96.60;;;18.51;47.94;102438.13;5054268;28;20365;-70
2023/05/26 09:54:21;;;;;;;;;;;19.10;95.00;;;18.72;49.76;102434.31;5035058;28;19966;-71
2023/05/26 09:56:52;;;;;;;;;;;19.30;96.60;;;18.60;48.08;102433.19;5056518;28;19924;-72
2023/05/26 09:59:26;;;;;;;;;;;19.30;95.20;;;18.12;48.45;102424.16;5048961;28;19928;-72
2023/05/26 10:01:53;;;;;;;;;;;19.20;94.60;;;18.02;48.30;102431.75;5055175;28;20038;-71
2023/05/26 10:04:26;;;;;;;;;;;19.10;94.50;;;18.30;48.71;102432.16;5030741;28;19928;-71
2023/05/26 10:06:52;;;;;;;;;;;19.10;95.20;;;18.70;47.92;102433.53;5059179;28;19940;-70
2023/05/26 10:09:22;;;;;;;;;;;19.30;94.70;;;18.80;47.75;102436.63;5055552;28;19920;-71
2023/05/26 10:11:49;;;;;;;;;;;19.50;95.10;;;18.85;47.90;102446.13;5055711;28;19920;-71
2023/05/26 10:14:15;;;;;;;;;;;19.60;94.80;;;19.13;47.41;102449.06;5044920;28;19966;-71
2023/05/26 10:16:45;;;;;;;;;;;19.80;94.60;;;19.19;48.21;102440.72;5039878;28;19920;-71
2023/05/26 10:19:14;;;;;;;;;;;19.90;95.50;;;19.26;47.48;102442.06;5055223;28;20348;-71
2023/05/26 10:21:55;;;;;;;;;;;19.90;94.80;;;19.28;48.70;102448.19;5038730;28;19936;-71
2023/05/26 10:24:37;;;;;;;;;;;20.00;95.60;;;19.56;47.01;102468.00;5060417;28;20373;-71
2023/05/26 10:27:31;;;;;;;;;;;20.20;93.60;;;19.57;47.82;102467.06;5054441;28;20530;-71
2023/05/26 10:30:11;;;;;;;;;;;20.20;95.10;;;19.24;48.07;102460.88;5022046;28;19920;-72
2023/05/26 10:32:55;;;;;;;;;;;20.20;95.00;;;19.24;46.86;102451.97;5037003;28;19928;-72
2023/05/26 10:35:22;;;;;;;;;;;20.10;94.30;;;19.14;47.28;102458.81;5038457;28;19927;-72
2023/05/26 10:38:02;;;;;;;;;;;20.00;94.40;;;18.75;46.95;102441.31;5035969;28;21113;-72
2023/05/26 10:40:47;;;;;;;;;;;19.80;93.40;;;19.09;46.66;102448.34;5053174;28;19916;-72
2023/05/26 10:43:29;;;;;;;;;;;19.90;93.70;;;19.19;47.45;102449.56;5051506;28;20006;-72
2023/05/26 10:46:02;;;;;;;;;;;19.90;94.00;;;18.74;48.47;102437.75;5050356;28;19928;-72
2023/05/26 10:48:38;;;;;;;;;;;19.80;95.00;;;18.77;48.14;102440.28;5055002;28;20461;-72
2023/05/26 10:51:33;;;;;;;;;;;19.80;94.60;;;18.60;47.51;102433.19;5038313;28;19956;-72
2023/05/26 10:54:13;;;;;;;;;;;19.70;94.00;;;18.45;48.42;102437.53;5035086;28;19955;-71
2023/05/26 10:56:46;;;;;;;;;;;19.50;94.80;;;18.58;47.96;102435.06;5051363;28;19928;-72
2023/05/26 10:59:24;;;;;;;;;;;19.40;94.60;;;19.04;48.89;102445.09;5051855;28;19920;-71
2023/05/26 11:01:54;;;;;;;;;;;19.70;95.70;;;19.19;48.42;102454.06;5053125;28;20051;-72
2023/05/26 11:04:38;;;;;;;;;;;19.80;95.50;;;18.79;47.89;102445.56;5056436;28;19996;-72
2023/05/26 11:07:07;;;;;;;;;;;19.80;94.30;;;19.13;49.40;102446.38;5043247;28;19917;-71
2023/05/26 11:09:33;;;;;;;;;;;19.80;96.20;;;19.17;47.33;102448.78;5054350;28;19916;-71
2023/05/26 11:12:05;;;;;;;;;;;19.90;94.60;;;18.65;46.97;102447.13;5040047;28;19919;-72
2023/05/26 11:14:33;;;;;;;;;;;19.70;93.50;;;19.10;48.23;102450.09;5052838;28;19944;-72
2023/05/26 11:17:00;;;;;;;;;;;19.80;94.90;;;19.39;46.85;102455.59;5052492;28;20007;-73
2023/05/26 11:19:31;;;;;;;;;;;20.00;94.00;;;19.74;47.45;102458.09;5056199;28;19983;-71